Herbert C Jackson — WL3972 — position and weather

sailwx.info

Track history (hours):
 
Tides and Currents Weather Stations Pressure Air Temp Water Temp Dewpoint Dewpoint Depression Visibility Wind Speed Wind Dir Waves Ship Positions

Herbert C Jackson

More information available from US FCC via Universal Licensing System and Coast Guard Vessel Documentation Center.

Last reported at 2014-Jul-24 22:00 UTC. Time now 2014-Jul-24 23:04 UTC.
Position N 46°42' W 086°18'.

Length 239 m; draft 6.2 m.

Type: Cargo ship. MMSI: 366904930.

Wind from 040 at 4 knots

Barometer 1016.6 mb
Air temperature 14.0 ° C
Water temperature 4.2 ° C

Date/timePositionNaut miles runAvg speedWind from/ knotsBaromVisibWave heightAir tempDewpointWater temp
2014-Jul-24 22:00N 46°42' W 086°18'2512.7 040 / 41016.6 14.0 4.2
2014-Jul-24 20:00N 46°36' W 086°54'1212.4 020 / 111017.6 16.3 6.8
2014-Jul-24 19:00N 46°36' W 087°12'8 8.2 030 / 121017.9 17.0 8.6
2014-Jul-24 18:00N 46°36' W 087°24'0 0.0 290 / 11019.6 20.6 10.1
2014-Jul-24 17:00N 46°36' W 087°24'0 0.0 280 / 11020.0 19.5 10.4
2014-Jul-24 16:00N 46°36' W 087°24'0 0.0 140 / 11020.0 18.7 10.8
2014-Jul-24 14:00N 46°36' W 087°24'0 0.0 320 / 11021.0 19.0 10.3
2014-Jul-24 11:00N 46°36' W 087°24'0 0.0 240 / 41021.0 14.1 10.1
2014-Jul-24 10:00N 46°36' W 087°24'0 0.0 260 / 21020.7 13.1 10.0
2014-Jul-24 09:00N 46°36' W 087°24'1212.4 260 / 61020.7 13.1 10.2
2014-Jul-24 08:00N 46°36' W 087°06'3812.5 210 / 121020.0 12.2 9.1
2014-Jul-24 05:00N 46°42' W 086°12'2914.7 220 / 111020.3 11.8 4.8
2014-Jul-24 03:00N 46°48' W 085°30'3511.7 300 / 111019.6 5.9 3.9
2014-Jul-24 00:00N 46°36' W 084°42'14 6.9 300 / 261018.6 12.5 13.2
2014-Jul-23 22:00N 46°30' W 084°24'17 5.8 320 / 191020.0 16.7 13.8
2014-Jul-23 19:00N 46°18' W 084°06'6 9.8 310 / 161019.1 19.1 14.0
2014-Jul-23 18:26N 46°13' W 084°07'1610.8
2014-Jul-23 17:00N 46°00' W 083°54'511.6 350 / 101018.8 17.4 15.2
2014-Jul-23 16:31N 45°55' W 083°52'713.8
2014-Jul-23 16:00N 45°48' W 083°48'2512.3 350 / 161017.7 15.7 13.3
2014-Jul-23 14:00N 45°30' W 083°24'1312.7 320 / 201016.7 14.9 12.3
2014-Jul-23 13:00N 45°18' W 083°18'6513.0 300 / 211016.7 14.5 13.0
2014-Jul-23 08:00N 44°18' W 082°42'1212.0 320 / 341010.3 17.4 15.4
2014-Jul-23 07:00N 44°06' W 082°42'1312.8 320 / 261010.6 19.7 18.2
2014-Jul-23 06:00N 43°54' W 082°36'2412.2 350 / 151011.0 20.6 18.5
2014-Jul-23 04:00N 43°30' W 082°30'3015.2 240 / 131012.3 26.5 18.1
2014-Jul-23 02:00N 43°00' W 082°24'19 9.3 220 / 121012.7 27.2 18.5
2014-Jul-23 00:00N 42°42' W 082°30'6 6.0 190 / 131013.3 28.2 18.1
2014-Jul-22 23:00N 42°36' W 082°30'1110.7 190 / 101013.7 28.7 18.1
2014-Jul-22 22:00N 42°30' W 082°42'1110.7 190 / 141013.8 25.7 19.0
2014-Jul-22 21:00N 42°24' W 082°54'1110.7 220 / 141014.5 30.2 20.8
2014-Jul-22 20:00N 42°18' W 083°06'0 0.0 170 / 151015.5 29.0 21.3
2014-Jul-22 19:00N 42°18' W 083°06'4 1.5 150 / 91015.2 30.0 25.5
2014-Jul-22 16:00N 42°18' W 083°12'0 0.0 250 / 71017.5 29.0 23.7
2014-Jul-22 15:00N 42°18' W 083°12'0 0.0 180 / 51018.2 27.7 23.3
2014-Jul-22 14:00N 42°18' W 083°12'0 0.0 190 / 51019.2 26.2 23.1
2014-Jul-22 13:00N 42°18' W 083°12'9 4.4 280 / 61020.3 24.3 22.9
2014-Jul-22 11:00N 42°18' W 083°00'1110.7 200 / 41019.6 20.8 20.1
2014-Jul-22 10:00N 42°24' W 082°48'1110.7 160 / 51019.6 21.6 18.9
2014-Jul-22 09:00N 42°30' W 082°36'37 9.3 150 / 21019.6 18.4 17.6
2014-Jul-22 05:00N 43°06' W 082°24'1818.0 190 / 81019.110.8 21.9 17.5
2014-Jul-22 04:00N 43°24' W 082°24'1212.0 150 / 101019.1 21.7 17.4
2014-Jul-22 03:00N 43°36' W 082°24'1312.8 160 / 131018.8 21.6 16.9
2014-Jul-22 02:00N 43°48' W 082°30'8812.5 170 / 121018.8 21.3 16.8
2014-Jul-21 19:00N 45°12' W 083°06'1514.7 150 / 151017.7 19.2 13.3
2014-Jul-21 18:00N 45°24' W 083°18'1010.3 140 / 151017.710.8 0.519.2 13.0
2014-Jul-21 17:00N 45°30' W 083°30'4712.0 130 / 141018.1 18.8 13.6
2014-Jul-21 13:06N 46°10' W 084°05'220.7
2014-Jul-21 13:00N 46°12' W 084°06'9 5.9 200 / 101016.4 19.3 15.2
2014-Jul-21 11:24N 46°20' W 084°13'4 9.7
2014-Jul-21 11:00N 46°24' W 084°12'7 7.3 090 / 71016.4 15.5 13.8
2014-Jul-21 10:00N 46°30' W 084°18'4 2.1 060 / 71016.7 15.1 13.7
2014-Jul-21 08:00N 46°30' W 084°24'2 3.6 060 / 21016.6 15.4 13.5
2014-Jul-21 07:22N 46°29' W 084°27'2 6.6
2014-Jul-21 07:00N 46°30' W 084°30'5310.5 050 / 71015.9 15.9 12.6
2014-Jul-21 02:00N 46°48' W 085°42'1212.3 170 / 181013.9 19.0 3.6
2014-Jul-21 01:00N 46°48' W 086°00'2512.7 170 / 131013.2 19.2 4.7
2014-Jul-20 23:00N 46°42' W 086°36'1413.7 170 / 231012.5 19.1 4.4
2014-Jul-20 22:00N 46°36' W 086°54'1212.4 160 / 191011.9 19.6 6.2
2014-Jul-20 21:00N 46°36' W 087°12'8 1.6 190 / 171012.5 22.7 10.7
2014-Jul-20 16:00N 46°36' W 087°24'0 0.0 180 / 81014.2 24.5 9.9
2014-Jul-20 15:00N 46°36' W 087°24'0 0.0 160 / 21014.2 23.4 9.8
2014-Jul-20 13:00N 46°36' W 087°24'3812.5 210 / 151014.2 21.8 10.3
2014-Jul-20 10:00N 46°42' W 086°30'715.7 180 / 261013.2 15.6 3.8
2014-Jul-20 09:32N 46°43' W 086°20'5 9.7
2014-Jul-20 09:00N 46°42' W 086°12'818.3 180 / 241013.2 16.4 6.2
2014-Jul-20 08:33N 46°45' W 086°01'1413.2
2014-Jul-20 07:29N 46°47' W 085°40'1213.4
2014-Jul-20 06:33N 46°48' W 085°22'1313.2
2014-Jul-20 05:32N 46°48' W 085°03'1212.4
2014-Jul-20 04:33N 46°40' W 084°50'711.6
2014-Jul-20 04:00N 46°36' W 084°42'1014.1 140 / 161016.9 16.9 13.5
2014-Jul-20 03:17N 46°28' W 084°34'311.3
2014-Jul-20 03:00N 46°30' W 084°30'14 4.6 120 / 71017.3 17.1 13.4
2014-Jul-20 00:00N 46°24' W 084°12'7 7.3 160 / 101017.4 21.3 13.9
2014-Jul-19 23:00N 46°18' W 084°06'612.8 170 / 91017.4 22.7 14.4
2014-Jul-19 22:33N 46°12' W 084°07'814.5
2014-Jul-19 22:00N 46°06' W 084°00'4 7.5 160 / 131017.4 20.6 14.7
2014-Jul-19 21:30N 46°03' W 083°57'1011.1
2014-Jul-19 20:33N 45°53' W 083°51'5013.9
2014-Jul-19 17:00N 45°12' W 083°12'2512.7 150 / 111019.8 17.9 13.5
2014-Jul-19 15:00N 44°48' W 083°00'3812.7 170 / 61020.4 17.5 14.6
2014-Jul-19 12:00N 44°12' W 082°42'1312.8 150 / 41020.8 19.5 17.2
2014-Jul-19 11:00N 44°00' W 082°36'1312.8 130 / 41020.8 19.3 17.7
2014-Jul-19 10:00N 43°48' W 082°30'1818.0 090 / 31020.4 18.7 17.2
2014-Jul-19 09:00N 43°30' W 082°30'2412.2 130 / 51020.1 19.1 16.9
2014-Jul-19 07:00N 43°06' W 082°24'19 9.3 100 / 61020.4 18.9 16.8
2014-Jul-19 05:00N 42°48' W 082°30'6 6.0 010 / 31020.8 17.4 17.3
2014-Jul-19 04:00N 42°42' W 082°30'2211.2 330 / 31021.1 17.5 17.2
2014-Jul-19 02:00N 42°24' W 082°48'15 7.3 120 / 131020.6 22.0 19.6
2014-Jul-19 00:00N 42°18' W 083°06'0 0.0 090 / 61020.9 23.2 23.0
2014-Jul-18 17:00N 42°18' W 083°06'4 2.2 140 / 61023.3 24.7 22.5
2014-Jul-18 15:00N 42°18' W 083°00'1110.7 120 / 61024.0 21.7 18.9
2014-Jul-18 14:00N 42°24' W 082°48'1110.7 110 / 31024.0 19.6 17.5
2014-Jul-18 13:00N 42°30' W 082°36'1312.8 100 / 21024.0 19.3 16.8
2014-Jul-18 12:00N 42°42' W 082°30'19 9.3 150 / 31023.8 16.0 16.8
2014-Jul-18 10:00N 43°00' W 082°24'1212.0 160 / 41022.1 15.8 16.4
2014-Jul-18 09:00N 43°12' W 082°24'2412.2 250 / 61021.5 17.5 16.7
2014-Jul-18 07:00N 43°36' W 082°30'3612.1 200 / 101020.410.8 0.517.5 15.7
2014-Jul-18 04:00N 44°12' W 082°36'1312.7 160 / 141018.8 18.1 14.5
2014-Jul-18 03:00N 44°24' W 082°42'5313.1 160 / 141018.8 17.0 12.9
2014-Jul-17 23:00N 45°12' W 083°12'4713.3 180 / 121017.4 16.2 9.7
2014-Jul-17 19:27N 45°52' W 083°48'1111.9
2014-Jul-17 18:30N 46°02' W 083°55'1610.3
2014-Jul-17 17:00N 46°12' W 084°12'6 6.0 130 / 31016.7 19.5 12.7
2014-Jul-17 16:00N 46°18' W 084°12'1312.7 260 / 31016.7 18.7 12.5
2014-Jul-17 15:00N 46°30' W 084°18'0 0.0 110 / 21017.1 16.0 12.2
2014-Jul-17 14:00N 46°30' W 084°18'7 4.4 260 / 41016.7 15.9 12.0
2014-Jul-17 12:28N 46°28' W 084°27'2710.8
2014-Jul-17 10:00N 46°48' W 084°54'1413.7 080 / 51015.6 9.7 8.0
2014-Jul-17 09:00N 46°54' W 085°12'1413.7 250 / 81015.6 7.6 5.5
2014-Jul-17 08:00N 46°48' W 085°30'1212.3 290 / 51015.2 9.2 3.8
2014-Jul-17 07:00N 46°48' W 085°48'1212.3 320 / 91015.6 8.7 4.0
2014-Jul-17 06:00N 46°48' W 086°06'2512.7 240 / 91015.2 9.6 3.5
2014-Jul-17 04:00N 46°42' W 086°42'2110.7 230 / 61014.9 13.0 4.2
2014-Jul-17 02:00N 46°36' W 087°12'4 4.1 220 / 61014.9 15.4 9.0
2014-Jul-17 01:00N 46°36' W 087°18'4 4.1 230 / 21014.9 14.6 10.1
2014-Jul-17 00:00N 46°36' W 087°24'0 0.0 300 / 11015.2 19.2 10.3
2014-Jul-16 23:00N 46°36' W 087°24'0 0.0 280 / 11015.2 17.5 10.4
2014-Jul-16 22:00N 46°36' W 087°24'0 0.0 350 / 21014.9 16.8 10.4
2014-Jul-16 20:00N 46°36' W 087°24'6 2.0 350 / 11015.2 17.5 10.4
2014-Jul-16 17:00N 46°30' W 087°24'0 0.0 340 / 161014.6 13.4 10.6
2014-Jul-16 14:00N 46°30' W 087°24'0 0.0 310 / 101015.2 16.0 9.8
2014-Jul-16 13:00N 46°30' W 087°24'0 0.0 290 / 81014.9 15.1 9.7
2014-Jul-16 12:00N 46°30' W 087°24'4 4.1 290 / 71014.6 14.6 9.9
2014-Jul-16 11:00N 46°30' W 087°18'3511.7 300 / 141013.9 14.4 9.7
2014-Jul-16 08:00N 46°42' W 086°30'2914.7 300 / 191011.5 6.3 3.6
2014-Jul-16 06:00N 46°48' W 085°48'2512.3 230 / 361011.2 5.8 3.6
2014-Jul-16 04:00N 46°48' W 085°12'1212.3 300 / 161011.2 7.2 6.9
2014-Jul-16 03:00N 46°48' W 084°54'1312.7 310 / 171010.8 9.4 8.8
2014-Jul-16 02:00N 46°36' W 084°48'1010.2 330 / 221009.1 11.8 11.7
2014-Jul-16 01:00N 46°30' W 084°36'8 8.3 300 / 171009.1 12.8 11.8
2014-Jul-16 00:00N 46°30' W 084°24'4 4.1 320 / 81008.8 15.8 12.3
2014-Jul-15 23:00N 46°30' W 084°18'0 0.0 230 / 81008.3 13.7 12.4
2014-Jul-15 22:00N 46°30' W 084°18'28 5.1 300 / 141007.6 15.1 12.5
2014-Jul-15 16:29N 46°04' W 084°01'1010.3
2014-Jul-15 15:32N 45°56' W 083°53'  
Track history (hours):
 
Tides and Currents Weather Stations Pressure Air Temp Water Temp Dewpoint Dewpoint Depression Visibility Wind Speed Wind Dir Waves Ship Positions

Herbert C Jackson

More information available from US FCC via Universal Licensing System and Coast Guard Vessel Documentation Center.

Last reported at 2014-Jul-24 22:00 UTC. Time now 2014-Jul-24 23:04 UTC.
Position N 46°42' W 086°18'.

Length 239 m; draft 6.2 m.

Type: Cargo ship. MMSI: 366904930.

Wind from 040 at 4 knots

Barometer 1016.6 mb
Air temperature 14.0 ° C
Water temperature 4.2 ° C

Date/timePositionNaut miles runAvg speedWind from/ knotsBaromVisibWave heightAir tempDewpointWater temp
2014-Jul-24 22:00N 46°42' W 086°18'2512.7 040 / 41016.6 14.0 4.2
2014-Jul-24 20:00N 46°36' W 086°54'1212.4 020 / 111017.6 16.3 6.8
2014-Jul-24 19:00N 46°36' W 087°12'8 8.2 030 / 121017.9 17.0 8.6
2014-Jul-24 18:00N 46°36' W 087°24'0 0.0 290 / 11019.6 20.6 10.1
2014-Jul-24 17:00N 46°36' W 087°24'0 0.0 280 / 11020.0 19.5 10.4
2014-Jul-24 16:00N 46°36' W 087°24'0 0.0 140 / 11020.0 18.7 10.8
2014-Jul-24 14:00N 46°36' W 087°24'0 0.0 320 / 11021.0 19.0 10.3
2014-Jul-24 11:00N 46°36' W 087°24'0 0.0 240 / 41021.0 14.1 10.1
2014-Jul-24 10:00N 46°36' W 087°24'0 0.0 260 / 21020.7 13.1 10.0
2014-Jul-24 09:00N 46°36' W 087°24'1212.4 260 / 61020.7 13.1 10.2
2014-Jul-24 08:00N 46°36' W 087°06'3812.5 210 / 121020.0 12.2 9.1
2014-Jul-24 05:00N 46°42' W 086°12'2914.7 220 / 111020.3 11.8 4.8
2014-Jul-24 03:00N 46°48' W 085°30'3511.7 300 / 111019.6 5.9 3.9
2014-Jul-24 00:00N 46°36' W 084°42'14 6.9 300 / 261018.6 12.5 13.2
2014-Jul-23 22:00N 46°30' W 084°24'17 5.8 320 / 191020.0 16.7 13.8
2014-Jul-23 19:00N 46°18' W 084°06'6 9.8 310 / 161019.1 19.1 14.0
2014-Jul-23 18:26N 46°13' W 084°07'1610.8
2014-Jul-23 17:00N 46°00' W 083°54'511.6 350 / 101018.8 17.4 15.2
2014-Jul-23 16:31N 45°55' W 083°52'713.8
2014-Jul-23 16:00N 45°48' W 083°48'2512.3 350 / 161017.7 15.7 13.3
2014-Jul-23 14:00N 45°30' W 083°24'1312.7 320 / 201016.7 14.9 12.3
2014-Jul-23 13:00N 45°18' W 083°18'6513.0 300 / 211016.7 14.5 13.0
2014-Jul-23 08:00N 44°18' W 082°42'1212.0 320 / 341010.3 17.4 15.4
2014-Jul-23 07:00N 44°06' W 082°42'1312.8 320 / 261010.6 19.7 18.2
2014-Jul-23 06:00N 43°54' W 082°36'2412.2 350 / 151011.0 20.6 18.5
2014-Jul-23 04:00N 43°30' W 082°30'3015.2 240 / 131012.3 26.5 18.1
2014-Jul-23 02:00N 43°00' W 082°24'19 9.3 220 / 121012.7 27.2 18.5
2014-Jul-23 00:00N 42°42' W 082°30'6 6.0 190 / 131013.3 28.2 18.1
2014-Jul-22 23:00N 42°36' W 082°30'1110.7 190 / 101013.7 28.7 18.1
2014-Jul-22 22:00N 42°30' W 082°42'1110.7 190 / 141013.8 25.7 19.0
2014-Jul-22 21:00N 42°24' W 082°54'1110.7 220 / 141014.5 30.2 20.8
2014-Jul-22 20:00N 42°18' W 083°06'0 0.0 170 / 151015.5 29.0 21.3
2014-Jul-22 19:00N 42°18' W 083°06'4 1.5 150 / 91015.2 30.0 25.5
2014-Jul-22 16:00N 42°18' W 083°12'0 0.0 250 / 71017.5 29.0 23.7
2014-Jul-22 15:00N 42°18' W 083°12'0 0.0 180 / 51018.2 27.7 23.3
2014-Jul-22 14:00N 42°18' W 083°12'0 0.0 190 / 51019.2 26.2 23.1
2014-Jul-22 13:00N 42°18' W 083°12'9 4.4 280 / 61020.3 24.3 22.9
2014-Jul-22 11:00N 42°18' W 083°00'1110.7 200 / 41019.6 20.8 20.1
2014-Jul-22 10:00N 42°24' W 082°48'1110.7 160 / 51019.6 21.6 18.9
2014-Jul-22 09:00N 42°30' W 082°36'37 9.3 150 / 21019.6 18.4 17.6
2014-Jul-22 05:00N 43°06' W 082°24'1818.0 190 / 81019.110.8 21.9 17.5
2014-Jul-22 04:00N 43°24' W 082°24'1212.0 150 / 101019.1 21.7 17.4
2014-Jul-22 03:00N 43°36' W 082°24'1312.8 160 / 131018.8 21.6 16.9
2014-Jul-22 02:00N 43°48' W 082°30'8812.5 170 / 121018.8 21.3 16.8
2014-Jul-21 19:00N 45°12' W 083°06'1514.7 150 / 151017.7 19.2 13.3
2014-Jul-21 18:00N 45°24' W 083°18'1010.3 140 / 151017.710.8 0.519.2 13.0
2014-Jul-21 17:00N 45°30' W 083°30'4712.0 130 / 141018.1 18.8 13.6
2014-Jul-21 13:06N 46°10' W 084°05'220.7
2014-Jul-21 13:00N 46°12' W 084°06'9 5.9 200 / 101016.4 19.3 15.2
2014-Jul-21 11:24N 46°20' W 084°13'4 9.7
2014-Jul-21 11:00N 46°24' W 084°12'7 7.3 090 / 71016.4 15.5 13.8
2014-Jul-21 10:00N 46°30' W 084°18'4 2.1 060 / 71016.7 15.1 13.7
2014-Jul-21 08:00N 46°30' W 084°24'2 3.6 060 / 21016.6 15.4 13.5
2014-Jul-21 07:22N 46°29' W 084°27'2 6.6
2014-Jul-21 07:00N 46°30' W 084°30'5310.5 050 / 71015.9 15.9 12.6
2014-Jul-21 02:00N 46°48' W 085°42'1212.3 170 / 181013.9 19.0 3.6
2014-Jul-21 01:00N 46°48' W 086°00'2512.7 170 / 131013.2 19.2 4.7
2014-Jul-20 23:00N 46°42' W 086°36'1413.7 170 / 231012.5 19.1 4.4
2014-Jul-20 22:00N 46°36' W 086°54'1212.4 160 / 191011.9 19.6 6.2
2014-Jul-20 21:00N 46°36' W 087°12'8 1.6 190 / 171012.5 22.7 10.7
2014-Jul-20 16:00N 46°36' W 087°24'0 0.0 180 / 81014.2 24.5 9.9
2014-Jul-20 15:00N 46°36' W 087°24'0 0.0 160 / 21014.2 23.4 9.8
2014-Jul-20 13:00N 46°36' W 087°24'3812.5 210 / 151014.2 21.8 10.3
2014-Jul-20 10:00N 46°42' W 086°30'715.7 180 / 261013.2 15.6 3.8
2014-Jul-20 09:32N 46°43' W 086°20'5 9.7
2014-Jul-20 09:00N 46°42' W 086°12'818.3 180 / 241013.2 16.4 6.2
2014-Jul-20 08:33N 46°45' W 086°01'1413.2
2014-Jul-20 07:29N 46°47' W 085°40'1213.4
2014-Jul-20 06:33N 46°48' W 085°22'1313.2
2014-Jul-20 05:32N 46°48' W 085°03'1212.4
2014-Jul-20 04:33N 46°40' W 084°50'711.6
2014-Jul-20 04:00N 46°36' W 084°42'1014.1 140 / 161016.9 16.9 13.5
2014-Jul-20 03:17N 46°28' W 084°34'311.3
2014-Jul-20 03:00N 46°30' W 084°30'14 4.6 120 / 71017.3 17.1 13.4
2014-Jul-20 00:00N 46°24' W 084°12'7 7.3 160 / 101017.4 21.3 13.9
2014-Jul-19 23:00N 46°18' W 084°06'612.8 170 / 91017.4 22.7 14.4
2014-Jul-19 22:33N 46°12' W 084°07'814.5
2014-Jul-19 22:00N 46°06' W 084°00'4 7.5 160 / 131017.4 20.6 14.7
2014-Jul-19 21:30N 46°03' W 083°57'1011.1
2014-Jul-19 20:33N 45°53' W 083°51'5013.9
2014-Jul-19 17:00N 45°12' W 083°12'2512.7 150 / 111019.8 17.9 13.5
2014-Jul-19 15:00N 44°48' W 083°00'3812.7 170 / 61020.4 17.5 14.6
2014-Jul-19 12:00N 44°12' W 082°42'1312.8 150 / 41020.8 19.5 17.2
2014-Jul-19 11:00N 44°00' W 082°36'1312.8 130 / 41020.8 19.3 17.7
2014-Jul-19 10:00N 43°48' W 082°30'1818.0 090 / 31020.4 18.7 17.2
2014-Jul-19 09:00N 43°30' W 082°30'2412.2 130 / 51020.1 19.1 16.9
2014-Jul-19 07:00N 43°06' W 082°24'19 9.3 100 / 61020.4 18.9 16.8
2014-Jul-19 05:00N 42°48' W 082°30'6 6.0 010 / 31020.8 17.4 17.3
2014-Jul-19 04:00N 42°42' W 082°30'2211.2 330 / 31021.1 17.5 17.2
2014-Jul-19 02:00N 42°24' W 082°48'15 7.3 120 / 131020.6 22.0 19.6
2014-Jul-19 00:00N 42°18' W 083°06'0 0.0 090 / 61020.9 23.2 23.0
2014-Jul-18 17:00N 42°18' W 083°06'4 2.2 140 / 61023.3 24.7 22.5
2014-Jul-18 15:00N 42°18' W 083°00'1110.7 120 / 61024.0 21.7 18.9
2014-Jul-18 14:00N 42°24' W 082°48'1110.7 110 / 31024.0 19.6 17.5
2014-Jul-18 13:00N 42°30' W 082°36'1312.8 100 / 21024.0 19.3 16.8
2014-Jul-18 12:00N 42°42' W 082°30'19 9.3 150 / 31023.8 16.0 16.8
2014-Jul-18 10:00N 43°00' W 082°24'1212.0 160 / 41022.1 15.8 16.4
2014-Jul-18 09:00N 43°12' W 082°24'2412.2 250 / 61021.5 17.5 16.7
2014-Jul-18 07:00N 43°36' W 082°30'3612.1 200 / 101020.410.8 0.517.5 15.7
2014-Jul-18 04:00N 44°12' W 082°36'1312.7 160 / 141018.8 18.1 14.5
2014-Jul-18 03:00N 44°24' W 082°42'5313.1 160 / 141018.8 17.0 12.9
2014-Jul-17 23:00N 45°12' W 083°12'4713.3 180 / 121017.4 16.2 9.7
2014-Jul-17 19:27N 45°52' W 083°48'1111.9
2014-Jul-17 18:30N 46°02' W 083°55'1610.3
2014-Jul-17 17:00N 46°12' W 084°12'6 6.0 130 / 31016.7 19.5 12.7
2014-Jul-17 16:00N 46°18' W 084°12'1312.7 260 / 31016.7 18.7 12.5
2014-Jul-17 15:00N 46°30' W 084°18'0 0.0 110 / 21017.1 16.0 12.2
2014-Jul-17 14:00N 46°30' W 084°18'7 4.4 260 / 41016.7 15.9 12.0
2014-Jul-17 12:28N 46°28' W 084°27'2710.8
2014-Jul-17 10:00N 46°48' W 084°54'1413.7 080 / 51015.6 9.7 8.0
2014-Jul-17 09:00N 46°54' W 085°12'1413.7 250 / 81015.6 7.6 5.5
2014-Jul-17 08:00N 46°48' W 085°30'1212.3 290 / 51015.2 9.2 3.8
2014-Jul-17 07:00N 46°48' W 085°48'1212.3 320 / 91015.6 8.7 4.0
2014-Jul-17 06:00N 46°48' W 086°06'2512.7 240 / 91015.2 9.6 3.5
2014-Jul-17 04:00N 46°42' W 086°42'2110.7 230 / 61014.9 13.0 4.2
2014-Jul-17 02:00N 46°36' W 087°12'4 4.1 220 / 61014.9 15.4 9.0
2014-Jul-17 01:00N 46°36' W 087°18'4 4.1 230 / 21014.9 14.6 10.1
2014-Jul-17 00:00N 46°36' W 087°24'0 0.0 300 / 11015.2 19.2 10.3
2014-Jul-16 23:00N 46°36' W 087°24'0 0.0 280 / 11015.2 17.5 10.4
2014-Jul-16 22:00N 46°36' W 087°24'0 0.0 350 / 21014.9 16.8 10.4
2014-Jul-16 20:00N 46°36' W 087°24'6 2.0 350 / 11015.2 17.5 10.4
2014-Jul-16 17:00N 46°30' W 087°24'0 0.0 340 / 161014.6 13.4 10.6
2014-Jul-16 14:00N 46°30' W 087°24'0 0.0 310 / 101015.2 16.0 9.8
2014-Jul-16 13:00N 46°30' W 087°24'0 0.0 290 / 81014.9 15.1 9.7
2014-Jul-16 12:00N 46°30' W 087°24'4 4.1 290 / 71014.6 14.6 9.9
2014-Jul-16 11:00N 46°30' W 087°18'3511.7 300 / 141013.9 14.4 9.7
2014-Jul-16 08:00N 46°42' W 086°30'2914.7 300 / 191011.5 6.3 3.6
2014-Jul-16 06:00N 46°48' W 085°48'2512.3 230 / 361011.2 5.8 3.6
2014-Jul-16 04:00N 46°48' W 085°12'1212.3 300 / 161011.2 7.2 6.9
2014-Jul-16 03:00N 46°48' W 084°54'1312.7 310 / 171010.8 9.4 8.8
2014-Jul-16 02:00N 46°36' W 084°48'1010.2 330 / 221009.1 11.8 11.7
2014-Jul-16 01:00N 46°30' W 084°36'8 8.3 300 / 171009.1 12.8 11.8
2014-Jul-16 00:00N 46°30' W 084°24'4 4.1 320 / 81008.8 15.8 12.3
2014-Jul-15 23:00N 46°30' W 084°18'0 0.0 230 / 81008.3 13.7 12.4
2014-Jul-15 22:00N 46°30' W 084°18'28 5.1 300 / 141007.6 15.1 12.5
2014-Jul-15 16:29N 46°04' W 084°01'1010.3
2014-Jul-15 15:32N 45°56' W 083°53'  

Dump ship's entire track history